Latest Weather Observations for Padthaway

IDS60801

Issued at 7:35 pm CDT Thursday 27 November 2014 (issued every 30 minutes, with the page automatically refreshed every 10 minutes)

About weather observations | Map of weather stations | Latest weather observations for SA | Other Formats
Station Details ID: 026100 Name: PADTHAWAY SOUTH Lat: -36.65 Lon: 140.52 Height: 37.0 m
Data from the previous 72 hours. | See also: Recent months at Padthaway
Date/Time
CDT
Temp
°C
App
Temp
°C
Dew
Point
Rel
Hum
%
Delta-T
°C
Wind Press
QNH
hPa
Press
MSL
hPa
Rain
since 9 am
mm
Dir
 
Spd
km/h
Gust
km/h
Spd
kts
Gust
kts
27/07:30pm 24.3 20.2 2.5 24 10.5 SSE 13 19 7 10 - - 0.0
27/07:00pm 25.5 21.3 1.6 21 11.4 SSE 13 20 7 11 - - 0.0
27/06:30pm 25.8 21.0 0.5 19 11.8 SSE 15 20 8 11 - - 0.0
27/06:00pm 26.1 22.4 2.1 21 11.6 SSE 11 19 6 10 - - 0.0
27/05:30pm 26.2 21.6 -0.8 17 12.4 SE 13 26 7 14 - - 0.0
27/05:00pm 26.2 21.0 0.0 18 12.2 SE 17 22 9 12 - - 0.0
27/04:30pm 26.1 22.0 0.0 18 12.1 S 11 20 6 11 - - 0.0
27/04:00pm 25.8 22.7 1.2 20 11.7 S 7 15 4 8 - - 0.0
27/03:30pm 24.8 20.4 0.3 20 11.3 ESE 13 20 7 11 - - 0.0
27/03:00pm 24.4 19.9 1.9 23 10.7 S 15 20 8 11 - - 0.0
27/02:30pm 23.6 19.4 1.9 24 10.2 SE 13 17 7 9 - - 0.0
27/02:00pm 22.9 18.9 0.7 23 10.2 SE 11 20 6 11 - - 0.0
27/01:30pm 22.3 18.3 2.9 28 9.2 ESE 13 26 7 14 - - 0.0
27/01:00pm 21.8 17.8 3.0 29 8.9 ESE 13 20 7 11 - - 0.0
27/12:30pm 20.8 16.8 2.6 30 8.5 SSE 13 20 7 11 - - 0.0
27/12:00pm 19.5 15.2 3.2 34 7.7 ESE 15 24 8 13 - - 0.0
27/11:30am 19.1 15.8 4.5 38 7.0 SE 11 20 6 11 - - 0.0
27/11:00am 17.7 14.0 4.3 41 6.3 SE 13 22 7 12 - - 0.0
27/10:30am 17.2 13.2 4.9 44 5.9 SSE 15 20 8 11 - - 0.0
27/10:00am 16.2 11.8 4.9 47 5.4 SE 17 22 9 12 - - 0.0
27/09:30am 15.3 10.5 4.7 49 5.0 SSE 19 26 10 14 - - 0.0
27/09:00am 14.3 9.5 5.4 55 4.2 SE 20 28 11 15 - - 0.0
27/08:30am 13.1 9.0 6.0 62 3.4 SE 17 26 9 14 - - 0.0
27/08:00am 11.2 7.1 6.1 71 2.4 SE 17 24 9 13 - - 0.0
27/07:30am 8.7 6.0 5.8 82 1.3 SE 9 13 5 7 - - 0.0
27/07:00am 6.9 4.7 5.1 88 0.8 ESE 6 9 3 5 - - 0.0
27/06:30am 5.9 3.1 5.0 94 0.4 SE 9 13 5 7 - - 0.0
27/06:00am 4.7 1.7 4.0 95 0.3 SE 9 11 5 6 - - 0.0
27/05:30am 4.8 1.8 4.1 95 0.3 SE 9 11 5 6 - - 0.0
27/05:00am 5.1 2.2 4.4 95 0.3 SE 9 11 5 6 - - 0.0
27/04:30am 5.0 2.4 4.1 94 0.4 ESE 7 9 4 5 - - 0.0
27/04:00am 5.0 2.4 4.0 93 0.4 SE 7 13 4 7 - - 0.0
27/03:30am 5.7 4.1 4.3 91 0.6 SE 2 7 1 4 - - 0.0
27/03:00am 6.6 3.9 5.4 92 0.5 SE 9 13 5 7 - - 0.0
27/02:30am 7.4 5.6 5.5 88 0.8 SE 4 9 2 5 - - 0.0
27/02:00am 8.8 5.6 6.8 87 0.9 SSE 13 17 7 9 - - 0.0
27/01:30am 9.2 5.6 6.8 85 1.1 SSE 15 20 8 11 - - 0.0
27/01:00am 8.9 6.1 6.9 87 0.9 SSE 11 15 6 8 - - 0.0
27/12:30am 9.4 6.6 6.8 84 1.2 SSE 11 13 6 7 - - 0.0
27/12:00am 10.3 7.5 7.0 80 1.6 SSE 11 15 6 8 - - 0.0
 
Date/Time
CDT
Temp
°C
App
Temp
°C
Dew
Point
Rel
Hum
%
Delta-T
°C
Wind Press
QNH
hPa
Press
MSL
hPa
Rain
since 9 am
mm
Dir
 
Spd
km/h
Gust
km/h
Spd
kts
Gust
kts
26/11:30pm 10.8 8.4 6.9 77 1.9 SSE 9 13 5 7 - - 0.0
26/11:00pm 11.9 8.8 7.2 73 2.3 SSE 13 17 7 9 - - 0.0
26/10:30pm 12.9 9.1 7.6 70 2.6 SSE 17 24 9 13 - - 0.0
26/10:00pm 13.7 9.6 7.7 67 3.0 SSE 19 26 10 14 - - 0.0
26/09:30pm 14.5 10.3 8.2 66 3.2 SSE 20 28 11 15 - - 0.0
26/09:00pm 15.5 12.0 8.7 64 3.5 SSE 17 24 9 13 - - 0.0
26/08:30pm 16.5 13.1 9.2 62 3.8 SSE 17 26 9 14 - - 0.0
26/08:00pm 17.6 14.6 10.5 63 3.8 S 17 26 9 14 - - 0.0
26/07:30pm 17.8 14.7 10.4 62 4.0 SSE 17 30 9 16 - - 0.0
26/07:00pm 18.1 14.3 11.2 64 3.8 SSE 22 32 12 17 - - 0.0
26/06:30pm 19.2 16.5 10.5 57 4.7 SSW 15 22 8 12 - - 0.0
26/06:00pm 19.8 16.4 10.5 55 5.0 S 19 24 10 13 - - 0.0
26/05:30pm 19.2 15.8 10.5 57 4.7 SSW 19 28 10 15 - - 0.0
26/05:00pm 19.4 15.7 10.1 55 5.0 S 20 28 11 15 - - 0.0
26/04:30pm 19.7 16.0 9.6 52 5.4 S 19 30 10 16 - - 0.0
26/04:00pm 19.9 16.0 9.5 51 5.5 SSW 20 28 11 15 - - 0.0
26/03:30pm 20.1 16.8 9.4 50 5.7 SSW 17 22 9 12 - - 0.0
26/03:00pm 19.9 16.6 9.5 51 5.5 SSW 17 26 9 14 - - 0.0
26/02:30pm 20.2 17.6 9.2 49 5.8 SSW 13 22 7 12 - - 0.0
26/02:00pm 19.6 16.1 8.6 49 5.7 SW 17 28 9 15 - - 0.0
26/01:30pm 19.6 16.8 8.6 49 5.7 SSW 13 24 7 13 - - 0.0
26/01:00pm 19.2 15.6 8.5 50 5.6 SSW 17 24 9 13 - - 0.0
26/12:30pm 18.7 15.6 8.7 52 5.2 SSW 15 22 8 12 - - 0.0
26/12:00pm 18.1 15.2 8.1 52 5.1 SSW 13 24 7 13 - - 0.0
26/11:30am 17.2 14.3 8.1 55 4.6 S 13 20 7 11 - - 0.0
26/11:00am 16.7 13.6 8.7 59 4.1 SSW 15 24 8 13 - - 0.0
26/10:30am 15.8 13.1 8.8 63 3.6 SW 13 19 7 10 - - 0.0
26/10:00am 15.5 13.3 9.2 66 3.2 SW 11 17 6 9 - - 0.0
26/09:30am 15.4 13.0 8.6 64 3.5 SSW 11 17 6 9 - - 0.0
26/09:00am 14.5 12.5 8.7 68 2.9 S 9 17 5 9 - - 0.0
26/08:30am 13.6 12.8 8.2 70 2.7 W 2 7 1 4 - - 0.0
26/08:00am 12.1 11.7 8.4 78 1.8 CALM 0 6 0 3 - - 0.0
26/07:30am 11.0 10.7 8.6 85 1.2 CALM 0 0 0 0 - - 0.0
26/07:00am 10.2 9.8 8.3 88 0.9 CALM 0 0 0 0 - - 0.0
26/06:30am 9.7 8.7 8.8 94 0.4 ENE 4 6 2 3 - - 0.0
26/06:00am 8.8 8.0 8.0 95 0.4 NNE 2 7 1 4 - - 0.0
26/05:30am 7.6 6.9 7.0 96 0.3 CALM 0 0 0 0 - - 0.0
26/05:00am 6.1 3.7 5.4 95 0.3 NNE 7 9 4 5 - - 0.0
26/04:30am 4.8 3.4 3.6 92 0.5 CALM 0 0 0 0 - - 0.0
26/04:00am 5.0 2.9 3.8 92 0.5 NNE 4 7 2 4 - - 0.0
26/03:30am 5.2 3.9 3.9 91 0.5 CALM 0 0 0 0 - - 0.0
26/03:00am 5.5 4.2 4.2 91 0.6 CALM 0 0 0 0 - - 0.0
26/02:30am 5.8 3.4 4.3 90 0.6 N 6 6 3 3 - - 0.0
26/02:00am 6.2 3.3 4.5 89 0.7 N 9 9 5 5 - - 0.0
26/01:30am 7.0 6.0 5.5 90 0.7 CALM 0 0 0 0 - - 0.0
26/01:00am 7.7 6.8 6.0 89 0.8 CALM 0 0 0 0 - - 0.0
26/12:30am 8.0 7.1 6.0 87 0.9 CALM 0 0 0 0 - - 0.0
26/12:00am 8.9 8.1 6.7 86 1.0 CALM 0 0 0 0 - - 0.0
 
Date/Time
CDT
Temp
°C
App
Temp
°C
Dew
Point
Rel
Hum
%
Delta-T
°C
Wind Press
QNH
hPa
Press
MSL
hPa
Rain
since 9 am
mm
Dir
 
Spd
km/h
Gust
km/h
Spd
kts
Gust
kts
25/11:30pm 9.1 7.1 6.2 82 1.3 SSW 6 9 3 5 - - 0.0
25/11:00pm 9.4 7.5 6.7 83 1.3 SSW 6 7 3 4 - - 0.0
25/10:30pm 10.2 9.1 6.9 80 1.6 SSW 2 7 1 4 - - 0.0
25/10:00pm 11.4 9.4 6.3 71 2.4 S 6 9 3 5 - - 0.0
25/09:30pm 12.1 9.4 5.7 65 3.0 SW 9 13 5 7 - - 0.0
25/09:00pm 13.0 9.9 5.4 60 3.6 SW 11 15 6 8 - - 0.0
25/08:30pm 14.1 11.0 5.5 56 4.1 SW 11 17 6 9 - - 0.0
25/08:00pm 15.1 11.3 5.6 53 4.5 SW 15 22 8 12 - - 0.0
25/07:30pm 16.1 12.0 6.0 51 4.9 SW 17 24 9 13 - - 0.0
25/07:00pm 16.8 12.3 6.0 49 5.3 WSW 19 28 10 15 - - 0.0
25/06:30pm 17.3 12.7 5.6 46 5.7 W 19 26 10 14 - - 0.0
25/06:00pm 17.6 12.9 5.2 44 6.0 WSW 19 28 10 15 - - 0.0
25/05:30pm 18.0 13.1 5.2 43 6.2 WSW 20 32 11 17 - - 0.0
25/05:00pm 18.9 14.1 5.4 41 6.6 WSW 20 30 11 16 - - 0.0
25/04:30pm 18.8 13.6 5.3 41 6.6 WSW 22 35 12 19 - - 0.0
25/04:00pm 18.8 13.0 4.2 38 7.0 WSW 24 37 13 20 - - 0.0
25/03:30pm 19.8 13.9 3.9 35 7.6 W 24 39 13 21 - - 0.0
25/03:00pm 19.0 13.9 4.0 37 7.1 SW 20 33 11 18 - - 0.0
25/02:30pm 19.1 13.8 5.2 40 6.8 WSW 22 35 12 19 - - 0.0
25/02:00pm 19.6 13.7 4.1 36 7.4 W 24 37 13 20 - - 0.0
25/01:30pm 19.7 14.8 5.0 38 7.2 SW 20 32 11 17 - - 0.0
25/01:00pm 20.0 14.9 4.1 35 7.6 W 20 33 11 18 - - 0.0
25/12:30pm 19.0 14.0 4.4 38 7.0 W 20 33 11 18 - - 0.0
25/12:00pm 18.0 13.0 4.6 41 6.4 W 20 33 11 18 - - 0.0
25/11:30am 18.4 13.9 5.9 44 6.1 WSW 19 24 10 13 - - 0.0
25/11:00am 18.0 13.6 7.4 50 5.4 SW 20 28 11 15 - - 0.0
25/10:30am 16.8 12.3 6.0 49 5.3 W 19 30 10 16 - - 0.0
25/10:00am 17.0 12.2 5.6 47 5.5 W 20 30 11 16 - - 0.0
25/09:30am 17.2 12.0 3.8 41 6.3 WSW 20 30 11 16 - - 0.0
25/09:00am 15.9 12.2 6.1 52 4.8 SW 15 22 8 12 - - 0.0
25/08:30am 15.3 12.6 8.8 65 3.3 SW 13 20 7 11 - - 0.0
25/08:00am 13.5 11.6 9.0 74 2.3 W 9 15 5 8 - - 0.0
25/07:30am 11.5 9.9 8.7 83 1.4 NNW 7 9 4 5 - - 0.0
25/07:00am 10.4 8.9 8.5 88 0.9 NW 6 9 3 5 - - 0.0
25/06:30am 8.5 8.0 7.9 96 0.3 CALM 0 0 0 0 - - 0.0
25/06:00am 7.1 4.9 6.4 95 0.3 N 7 7 4 4 - - 0.0
25/05:30am 6.7 4.6 5.8 94 0.4 N 6 9 3 5 - - 0.0
25/05:00am 6.9 4.3 6.0 94 0.4 NNW 9 13 5 7 - - 0.0
25/04:30am 7.1 4.9 6.2 94 0.4 NNW 7 9 4 5 - - 0.0
25/04:00am 7.3 4.7 6.2 93 0.5 NNW 9 11 5 6 - - 0.0
25/03:30am 7.9 6.6 6.2 89 0.8 W 2 6 1 3 - - 0.0
25/03:00am 9.3 7.3 7.3 87 0.9 W 7 11 4 6 - - 0.0
25/02:30am 7.8 6.7 6.7 93 0.5 WSW 2 7 1 4 - - 0.0
25/02:00am 7.4 6.5 5.9 90 0.7 CALM 0 6 0 3 - - 0.0
25/01:30am 7.9 5.8 6.5 91 0.6 W 7 9 4 5 - - 0.0
25/01:00am 8.4 6.4 6.9 90 0.7 W 7 9 4 5 - - 0.0
25/12:30am 8.2 6.1 6.7 90 0.7 W 7 9 4 5 - - 0.0
25/12:00am 8.7 6.7 7.2 90 0.7 W 7 9 4 5 - - 0.0
 
Date/Time
CDT
Temp
°C
App
Temp
°C
Dew
Point
Rel
Hum
%
Delta-T
°C
Wind Press
QNH
hPa
Press
MSL
hPa
Rain
since 9 am
mm
Dir
 
Spd
km/h
Gust
km/h
Spd
kts
Gust
kts
24/11:30pm 9.3 8.6 7.1 86 1.0 CALM 0 0 0 0 - - 0.0
24/11:00pm 10.8 8.4 7.1 78 1.8 W 9 11 5 6 - - 0.0
24/10:30pm 11.1 8.6 6.6 74 2.1 W 9 11 5 6 - - 0.0
24/10:00pm 11.6 9.0 6.1 69 2.6 W 9 13 5 7 - - 0.0
24/09:30pm 12.2 9.5 5.6 64 3.1 W 9 13 5 7 - - 0.0
24/09:00pm 13.1 9.6 5.5 60 3.6 WSW 13 17 7 9 - - 0.0
24/08:30pm 13.7 9.7 4.8 55 4.1 WSW 15 24 8 13 - - 0.0
24/08:00pm 14.4 10.4 6.7 60 3.7 WSW 17 26 9 14 - - 0.0

Other Formats:

Comma delimited format used in spreadsheet applications
http://www.bom.gov.au/fwo/IDS60801/IDS60801.95823.axf

JavaScript Object Notation format (JSON) in row-major order
http://www.bom.gov.au/fwo/IDS60801/IDS60801.95823.json